createdAt,value
2022-11-24T00:01:15.585Z,1.90
2022-11-24T00:03:43.815Z,2.30
2022-11-24T00:06:13.459Z,2.13
2022-11-24T00:08:42.178Z,1.80
2022-11-24T00:11:11.747Z,1.88
2022-11-24T00:13:41.439Z,1.95
2022-11-24T00:16:19.545Z,1.80
2022-11-24T00:18:47.996Z,1.88
2022-11-24T00:21:15.918Z,1.67
2022-11-24T00:23:42.754Z,1.83
2022-11-24T00:26:18.267Z,1.90
2022-11-24T00:28:46.171Z,1.90
2022-11-24T00:31:20.292Z,2.00
2022-11-24T00:33:48.882Z,2.22
2022-11-24T00:36:16.650Z,1.90
2022-11-24T00:38:43.590Z,2.20
2022-11-24T00:41:10.391Z,1.90
2022-11-24T00:43:37.015Z,1.48
2022-11-24T00:46:04.045Z,1.65
2022-11-24T00:48:31.881Z,2.15
2022-11-24T00:51:03.777Z,1.92
2022-11-24T00:53:30.772Z,1.90
2022-11-24T00:55:57.412Z,1.80
2022-11-24T00:58:24.895Z,2.13
2022-11-24T01:00:52.406Z,1.85
2022-11-24T01:03:20.848Z,1.80
2022-11-24T01:05:47.584Z,1.50
2022-11-24T01:08:14.244Z,1.90
2022-11-24T01:10:40.889Z,1.70
2022-11-24T01:13:07.568Z,1.70
2022-11-24T01:15:35.739Z,2.00
2022-11-24T01:18:02.868Z,1.75
2022-11-24T01:20:30.400Z,2.00
2022-11-24T01:22:56.987Z,2.00
2022-11-24T01:25:23.804Z,1.70
2022-11-24T01:27:50.359Z,1.83
2022-11-24T01:30:17.165Z,1.80
2022-11-24T01:32:43.714Z,2.00
2022-11-24T01:35:10.526Z,1.73
2022-11-24T01:37:37.063Z,1.80
2022-11-24T01:40:03.989Z,1.85
2022-11-24T01:42:59.704Z,1.50
2022-11-24T01:45:34.102Z,1.50
2022-11-24T01:48:04.618Z,1.60
2022-11-24T01:50:32.652Z,1.80
2022-11-24T01:52:59.502Z,1.52
2022-11-24T01:55:31.528Z,1.90
2022-11-24T01:58:06.257Z,1.80
2022-11-24T02:00:35.399Z,2.05
2022-11-24T02:03:02.189Z,2.10
2022-11-24T02:05:38.998Z,1.60
2022-11-24T02:08:10.844Z,1.80
2022-11-24T02:10:37.933Z,1.60
2022-11-24T02:13:04.971Z,1.80
2022-11-24T02:15:32.321Z,1.90
2022-11-24T02:17:59.196Z,1.80
2022-11-24T02:20:26.523Z,2.05
2022-11-24T02:23:06.887Z,1.58
2022-11-24T02:25:42.511Z,2.05
2022-11-24T02:28:15.308Z,2.03
2022-11-24T02:30:42.356Z,1.70
2022-11-24T02:33:11.286Z,1.60
2022-11-24T02:35:37.894Z,1.60
2022-11-24T02:38:04.567Z,2.05
2022-11-24T02:40:31.692Z,1.83
2022-11-24T02:43:04.620Z,1.75
2022-11-24T02:45:31.953Z,1.75
2022-11-24T02:47:58.796Z,1.70
2022-11-24T02:50:25.946Z,1.60
2022-11-24T02:52:52.532Z,1.60
2022-11-24T02:55:20.311Z,1.85
2022-11-24T02:57:47.325Z,1.70
2022-11-24T03:00:14.407Z,1.63
2022-11-24T03:02:41.036Z,1.88
2022-11-24T03:05:08.360Z,1.55
2022-11-24T03:07:35.009Z,2.28
2022-11-24T03:10:01.574Z,1.70
2022-11-24T03:12:28.099Z,1.83
2022-11-24T03:14:54.660Z,1.73
2022-11-24T03:17:21.328Z,1.80
2022-11-24T03:19:47.856Z,1.70
2022-11-24T03:22:14.746Z,1.65
2022-11-24T03:24:41.328Z,1.67
2022-11-24T03:27:07.964Z,1.58
2022-11-24T03:29:34.590Z,1.80
2022-11-24T03:32:01.705Z,1.80
2022-11-24T03:34:28.252Z,1.50
2022-11-24T03:36:54.800Z,1.85
2022-11-24T03:39:21.397Z,1.83
2022-11-24T03:41:47.976Z,1.50
2022-11-24T03:44:14.572Z,1.90
2022-11-24T03:46:41.159Z,1.70
2022-11-24T03:49:07.744Z,1.80
2022-11-24T03:51:34.341Z,1.60
2022-11-24T03:54:00.886Z,1.73
2022-11-24T03:56:28.000Z,1.75
2022-11-24T03:58:54.645Z,1.70
2022-11-24T04:01:21.260Z,1.67
2022-11-24T04:03:47.979Z,1.92
2022-11-24T04:06:14.551Z,1.67
2022-11-24T04:08:41.112Z,1.90
2022-11-24T04:11:07.686Z,1.80
2022-11-24T04:13:34.295Z,1.85
2022-11-24T04:16:05.098Z,1.70
2022-11-24T04:18:31.604Z,1.83
2022-11-24T04:20:58.103Z,1.50
2022-11-24T04:23:24.613Z,1.65
2022-11-24T04:25:51.136Z,1.45
2022-11-24T04:28:17.637Z,1.60
2022-11-24T04:30:45.124Z,1.80
2022-11-24T04:33:12.411Z,1.60
2022-11-24T04:35:38.928Z,1.85
2022-11-24T04:38:05.480Z,1.60
2022-11-24T04:40:31.983Z,1.77
2022-11-24T04:42:58.551Z,1.65
2022-11-24T04:45:25.095Z,1.60
2022-11-24T04:47:51.824Z,1.80
2022-11-24T04:50:18.577Z,1.60
2022-11-24T04:52:45.448Z,1.75
2022-11-24T04:55:12.130Z,1.55
2022-11-24T04:57:38.918Z,1.40
2022-11-24T05:00:06.327Z,2.00
2022-11-24T05:02:32.819Z,1.67
2022-11-24T05:04:59.312Z,1.70
2022-11-24T05:07:25.854Z,1.63
2022-11-24T05:10:10.970Z,1.50
2022-11-24T05:12:37.522Z,1.77
2022-11-24T05:15:05.360Z,1.80
2022-11-24T05:17:34.118Z,1.50
2022-11-24T05:20:00.960Z,1.60
2022-11-24T05:22:29.241Z,1.70
2022-11-24T05:24:55.827Z,1.63
2022-11-24T05:27:22.733Z,1.67
2022-11-24T05:29:49.235Z,1.83
2022-11-24T05:32:15.715Z,1.52
2022-11-24T05:34:42.208Z,1.75
2022-11-24T05:37:09.019Z,1.48
2022-11-24T05:39:36.696Z,1.60
2022-11-24T05:42:25.246Z,1.77
2022-11-24T05:44:52.663Z,1.73
2022-11-24T05:47:19.580Z,1.23
2022-11-24T05:49:46.017Z,1.80
2022-11-24T05:52:12.711Z,1.65
2022-11-24T05:54:39.186Z,1.88
2022-11-24T05:57:05.664Z,2.03
2022-11-24T05:59:32.134Z,2.00
2022-11-24T06:01:58.780Z,2.28
2022-11-24T06:04:25.373Z,2.40
2022-11-24T06:06:51.820Z,2.00
2022-11-24T06:09:18.408Z,2.47
2022-11-24T06:11:44.807Z,2.53
2022-11-24T06:14:11.723Z,2.92
2022-11-24T06:16:38.499Z,2.70
2022-11-24T06:19:05.068Z,3.17
2022-11-24T06:21:31.862Z,3.03
2022-11-24T06:23:58.577Z,2.80
2022-11-24T06:26:25.007Z,3.15
2022-11-24T06:28:51.450Z,2.95
2022-11-24T06:31:18.153Z,2.70
2022-11-24T06:33:44.684Z,2.70
2022-11-24T06:36:14.197Z,2.85
2022-11-24T06:38:40.796Z,2.95
2022-11-24T06:41:11.603Z,2.83
2022-11-24T06:43:38.218Z,2.85
2022-11-24T06:46:05.209Z,3.35
2022-11-24T06:48:32.152Z,2.50
2022-11-24T06:51:03.247Z,3.10
2022-11-24T06:53:33.360Z,2.92
2022-11-24T06:56:01.183Z,2.47
2022-11-24T06:58:28.052Z,3.00
2022-11-24T07:00:54.515Z,2.53
2022-11-24T07:03:21.474Z,2.70
2022-11-24T07:05:48.113Z,2.45
2022-11-24T07:08:18.031Z,2.47
2022-11-24T07:10:44.903Z,2.83
2022-11-24T07:13:11.382Z,2.67
2022-11-24T07:15:37.927Z,2.35
2022-11-24T07:18:04.452Z,2.85
2022-11-24T07:20:31.063Z,3.03
2022-11-24T07:22:58.416Z,2.85
2022-11-24T07:25:25.668Z,2.78
2022-11-24T07:27:59.283Z,2.60
2022-11-24T07:30:27.462Z,2.60
2022-11-24T07:33:01.299Z,2.70
2022-11-24T07:35:28.713Z,2.60
2022-11-24T07:38:00.041Z,2.42
2022-11-24T07:40:26.909Z,2.53
2022-11-24T07:42:54.027Z,2.40
2022-11-24T07:45:20.762Z,2.28
2022-11-24T07:47:47.204Z,2.40
2022-11-24T07:50:13.776Z,2.80
2022-11-24T07:52:40.367Z,2.70
2022-11-24T07:55:07.830Z,2.35
2022-11-24T07:57:34.834Z,2.47
2022-11-24T08:00:01.340Z,2.55
2022-11-24T08:02:27.810Z,2.40
2022-11-24T08:04:54.301Z,2.60
2022-11-24T08:07:20.841Z,2.50
2022-11-24T08:09:47.470Z,2.22
2022-11-24T08:12:13.920Z,2.33
2022-11-24T08:14:40.327Z,2.25
2022-11-24T08:17:06.805Z,2.25
2022-11-24T08:19:34.336Z,2.53
2022-11-24T08:22:01.028Z,2.72
2022-11-24T08:24:29.954Z,2.40
2022-11-24T08:26:56.368Z,2.50
2022-11-24T08:29:22.868Z,2.13
2022-11-24T08:31:49.337Z,2.20
2022-11-24T08:34:15.790Z,1.95
2022-11-24T08:36:42.242Z,2.10
2022-11-24T08:39:11.966Z,2.45
2022-11-24T08:41:38.495Z,2.20
2022-11-24T08:44:04.952Z,2.00
2022-11-24T08:46:31.530Z,1.92
2022-11-24T08:48:58.011Z,2.20
2022-11-24T08:51:26.166Z,2.10
2022-11-24T08:53:58.140Z,2.50
2022-11-24T08:56:26.383Z,2.15
2022-11-24T08:58:53.516Z,2.08
2022-11-24T09:01:20.215Z,2.20
2022-11-24T09:03:50.994Z,2.17
2022-11-24T09:06:19.599Z,2.30
2022-11-24T09:08:46.079Z,1.90
2022-11-24T09:11:15.287Z,1.95
2022-11-24T09:13:42.168Z,2.10
2022-11-24T09:16:08.894Z,1.90
2022-11-24T09:18:35.782Z,2.17
2022-11-24T09:21:15.501Z,1.95
2022-11-24T09:23:42.803Z,2.22
2022-11-24T09:26:18.258Z,2.05
2022-11-24T09:28:45.825Z,2.03
2022-11-24T09:31:14.318Z,2.25
2022-11-24T09:33:41.639Z,2.13
2022-11-24T09:36:08.720Z,1.90
2022-11-24T09:38:35.481Z,1.83
2022-11-24T09:41:23.019Z,2.10
2022-11-24T09:44:26.969Z,1.83
2022-11-24T09:47:32.619Z,2.22
2022-11-24T09:50:03.467Z,2.00
2022-11-24T09:52:40.521Z,1.73
2022-11-24T09:55:34.156Z,1.65
2022-11-24T09:58:42.455Z,2.00
2022-11-24T10:01:21.496Z,1.70
2022-11-24T10:03:50.795Z,1.85
2022-11-24T10:06:34.758Z,1.65
2022-11-24T10:09:10.624Z,1.95
2022-11-24T10:12:02.021Z,1.85
2022-11-24T10:14:31.385Z,2.00
2022-11-24T10:17:22.965Z,1.90
2022-11-24T10:20:03.502Z,1.50
2022-11-24T10:23:05.094Z,1.70
2022-11-24T10:25:44.240Z,1.70
2022-11-24T10:28:14.179Z,2.00
2022-11-24T10:30:41.170Z,1.80
2022-11-24T10:33:19.517Z,1.60
2022-11-24T10:36:00.563Z,1.92
2022-11-24T10:38:33.887Z,1.60
2022-11-24T10:41:05.367Z,1.55
2022-11-24T10:43:31.844Z,2.00
2022-11-24T10:46:12.392Z,1.60
2022-11-24T10:48:45.627Z,1.58
2022-11-24T10:51:35.451Z,1.77
2022-11-24T10:54:10.682Z,1.50
2022-11-24T10:56:41.734Z,1.67
2022-11-24T10:59:20.554Z,2.00
2022-11-24T11:01:47.159Z,1.40
2022-11-24T11:04:31.525Z,1.40
2022-11-24T11:07:20.799Z,1.80
2022-11-24T11:09:48.889Z,1.80
2022-11-24T11:15:25.263Z,1.55
2022-11-24T11:17:54.559Z,1.70
2022-11-24T11:20:27.746Z,1.75
2022-11-24T11:22:55.969Z,1.42
2022-11-24T11:25:27.577Z,1.70
2022-11-24T11:28:18.422Z,1.65
2022-11-24T11:31:20.964Z,1.80
2022-11-24T11:34:16.675Z,1.60
2022-11-24T11:36:52.509Z,1.67
2022-11-24T11:39:31.054Z,1.70
2022-11-24T11:45:18.251Z,1.85
2022-11-24T11:48:03.157Z,2.05
2022-11-24T11:51:22.817Z,1.42
2022-11-24T11:54:08.610Z,1.98
2022-11-24T11:56:40.396Z,1.50
2022-11-24T11:59:06.877Z,1.83
2022-11-24T12:02:00.421Z,1.63
2022-11-24T12:04:43.510Z,1.55
2022-11-24T12:07:45.479Z,1.75
2022-11-24T12:10:20.063Z,2.05
2022-11-24T12:12:52.273Z,1.70
2022-11-24T12:15:46.060Z,1.35
2022-11-24T12:18:55.985Z,1.30
2022-11-24T12:21:15.355Z,1.45
2022-11-24T12:24:23.870Z,1.38
2022-11-24T12:27:11.043Z,1.73
2022-11-24T12:29:48.311Z,1.60
2022-11-24T12:32:57.467Z,1.83
2022-11-24T12:35:51.140Z,1.42
2022-11-24T12:38:23.548Z,1.95
2022-11-24T12:41:25.446Z,1.60
2022-11-24T12:43:52.994Z,1.60
2022-11-24T12:46:44.948Z,1.55
2022-11-24T12:49:34.093Z,1.70
2022-11-24T12:52:21.495Z,1.40
2022-11-24T12:54:47.982Z,1.58
2022-11-24T12:57:32.499Z,1.77
2022-11-24T13:00:06.197Z,1.90
2022-11-24T13:02:50.067Z,1.48
2022-11-24T13:05:33.689Z,1.48
2022-11-24T13:08:02.846Z,1.63
2022-11-24T13:10:55.904Z,1.52
2022-11-24T13:13:27.905Z,1.58
2022-11-24T13:16:28.557Z,1.45
2022-11-24T13:18:43.994Z,1.48
2022-11-24T13:21:32.325Z,1.73
2022-11-24T13:24:19.980Z,1.50
2022-11-24T13:26:55.634Z,1.67
2022-11-24T13:29:28.075Z,1.70
2022-11-24T13:32:06.439Z,1.30
2022-11-24T13:34:39.073Z,1.50
2022-11-24T13:37:34.753Z,1.63
2022-11-24T13:40:11.516Z,1.65
2022-11-24T13:43:04.092Z,1.70
2022-11-24T13:45:39.786Z,1.67
2022-11-24T13:48:22.303Z,1.45
2022-11-24T13:50:53.993Z,1.40
2022-11-24T13:53:46.831Z,1.40
2022-11-24T13:56:13.204Z,1.60
2022-11-24T13:58:56.140Z,1.50
2022-11-24T14:01:25.756Z,1.73
2022-11-24T14:04:33.308Z,1.50
2022-11-24T14:07:12.186Z,1.63
2022-11-24T14:09:45.799Z,1.40
2022-11-24T14:12:23.159Z,1.55
2022-11-24T14:14:51.991Z,1.67
2022-11-24T14:17:28.504Z,1.40
2022-11-24T14:19:57.114Z,1.70
2022-11-24T14:22:27.672Z,1.60
2022-11-24T14:24:57.138Z,1.60
2022-11-24T14:27:29.827Z,1.70
2022-11-24T14:29:59.144Z,1.88
2022-11-24T14:32:25.668Z,1.48
2022-11-24T14:34:54.039Z,1.60
2022-11-24T14:37:20.735Z,1.60
2022-11-24T14:39:47.439Z,1.52
2022-11-24T14:42:25.301Z,1.60
2022-11-24T14:44:58.621Z,1.50
2022-11-24T14:47:32.611Z,1.65
2022-11-24T14:50:15.249Z,1.40
2022-11-24T14:52:55.436Z,1.60
2022-11-24T14:55:35.242Z,2.08
2022-11-24T14:58:01.895Z,1.58
2022-11-24T15:00:32.659Z,1.70
2022-11-24T15:03:01.875Z,1.50
2022-11-24T15:05:53.489Z,1.50
2022-11-24T15:08:20.223Z,1.88
2022-11-24T15:10:47.220Z,1.70
2022-11-24T15:13:18.719Z,1.60
2022-11-24T15:15:55.324Z,1.40
2022-11-24T15:18:30.838Z,1.60
2022-11-24T15:20:57.466Z,1.38
2022-11-24T15:23:32.006Z,1.48
2022-11-24T15:26:01.413Z,1.90
2022-11-24T15:28:29.725Z,1.70
2022-11-24T15:31:09.644Z,1.65
2022-11-24T15:33:36.466Z,1.80
2022-11-24T15:36:03.134Z,1.50
2022-11-24T15:38:29.575Z,2.00
2022-11-24T15:40:59.105Z,1.70
2022-11-24T15:43:34.675Z,1.55
2022-11-24T15:46:02.498Z,1.63
2022-11-24T15:48:29.526Z,1.50
2022-11-24T15:50:57.717Z,1.75
2022-11-24T15:53:40.363Z,1.70
2022-11-24T15:56:12.133Z,1.85
2022-11-24T15:58:38.895Z,1.70
2022-11-24T16:01:05.482Z,1.55
2022-11-24T16:03:46.934Z,1.55
2022-11-24T16:06:22.165Z,1.63
2022-11-24T16:08:50.985Z,1.80
2022-11-24T16:11:17.436Z,1.80
2022-11-24T16:13:48.535Z,1.90
2022-11-24T16:16:18.588Z,1.88
2022-11-24T16:18:45.456Z,1.77
2022-11-24T16:21:12.217Z,2.20
2022-11-24T16:23:38.667Z,1.88
2022-11-24T16:26:05.425Z,2.03
2022-11-24T16:28:32.063Z,2.10
2022-11-24T16:30:58.488Z,1.95
2022-11-24T16:33:25.046Z,2.10
2022-11-24T16:35:51.501Z,1.95
2022-11-24T16:38:19.749Z,2.00
2022-11-24T16:40:54.032Z,2.08
2022-11-24T16:43:20.520Z,2.60
2022-11-24T16:45:59.632Z,2.25
2022-11-24T16:48:26.057Z,2.13
2022-11-24T16:50:52.452Z,2.38
2022-11-24T16:53:18.870Z,2.17
2022-11-24T16:55:56.694Z,2.17
2022-11-24T16:58:23.182Z,1.90
2022-11-24T17:00:50.061Z,2.70
2022-11-24T17:03:16.652Z,2.25
2022-11-24T17:05:43.058Z,2.38
2022-11-24T17:08:09.482Z,2.50
2022-11-24T17:10:39.037Z,2.35
2022-11-24T17:13:05.451Z,2.30
2022-11-24T17:15:35.472Z,2.25
2022-11-24T17:20:50.960Z,2.42
2022-11-24T17:23:19.673Z,2.97
2022-11-24T17:25:46.265Z,2.50
2022-11-24T17:33:35.574Z,2.50
2022-11-24T17:36:03.896Z,3.13
2022-11-24T17:38:33.255Z,2.50
2022-11-24T17:40:59.913Z,2.72
2022-11-24T17:43:27.497Z,2.75
2022-11-24T17:45:55.769Z,3.13
2022-11-24T17:48:22.995Z,2.70
2022-11-24T17:50:59.060Z,3.25
2022-11-24T17:53:25.532Z,2.53
2022-11-24T17:55:51.970Z,2.88
2022-11-24T17:58:18.607Z,2.90
2022-11-24T18:00:45.147Z,2.67
2022-11-24T18:03:11.623Z,2.97
2022-11-24T18:05:38.065Z,2.55
2022-11-24T18:08:04.719Z,2.80
2022-11-24T18:10:34.069Z,2.75
2022-11-24T18:13:00.518Z,2.53
2022-11-24T18:15:26.964Z,2.55
2022-11-24T18:17:53.405Z,3.05
2022-11-24T18:20:20.375Z,2.60
2022-11-24T18:25:37.138Z,3.08
2022-11-24T18:28:03.710Z,2.97
2022-11-24T18:30:30.161Z,2.90
2022-11-24T18:32:58.371Z,2.83
2022-11-24T18:35:24.764Z,2.83
2022-11-24T18:37:51.215Z,3.15
2022-11-24T18:40:17.726Z,2.78
2022-11-24T18:42:44.206Z,2.80
2022-11-24T18:45:11.104Z,2.80
2022-11-24T18:47:37.555Z,2.75
2022-11-24T18:50:04.560Z,2.75
2022-11-24T18:52:31.818Z,3.20
2022-11-24T18:55:03.751Z,2.92
2022-11-24T18:57:31.609Z,2.67
2022-11-24T18:59:58.719Z,2.67
2022-11-24T19:02:25.421Z,2.80
2022-11-24T19:04:51.905Z,3.15
2022-11-24T19:07:18.643Z,2.85
2022-11-24T19:09:45.825Z,2.60
2022-11-24T19:12:12.430Z,2.75
2022-11-24T19:14:39.320Z,2.80
2022-11-24T19:17:05.828Z,2.83
2022-11-24T19:19:34.254Z,2.80
2022-11-24T19:22:01.788Z,3.13
2022-11-24T19:24:28.364Z,2.70
2022-11-24T19:26:54.786Z,3.40
2022-11-24T19:29:21.250Z,2.90
2022-11-24T19:31:47.925Z,3.20
2022-11-24T19:34:15.595Z,2.97
2022-11-24T19:36:43.335Z,2.83
2022-11-24T19:39:16.597Z,2.83
2022-11-24T19:41:43.468Z,2.80
2022-11-24T19:44:13.590Z,3.30
2022-11-24T19:46:40.747Z,2.95
2022-11-24T19:49:08.831Z,2.78
2022-11-24T19:51:38.479Z,3.33
2022-11-24T19:54:12.888Z,3.50
2022-11-24T19:56:39.378Z,3.17
2022-11-24T19:59:06.430Z,3.55
2022-11-24T20:01:37.260Z,2.97
2022-11-24T20:04:07.259Z,2.88
2022-11-24T20:06:36.825Z,2.85
2022-11-24T20:09:06.066Z,3.10
2022-11-24T20:11:32.526Z,3.33
2022-11-24T20:13:59.332Z,3.35
2022-11-24T20:16:29.608Z,3.40
2022-11-24T20:18:58.619Z,3.22
2022-11-24T20:21:33.074Z,3.15
2022-11-24T20:24:11.250Z,3.35
2022-11-24T20:26:43.844Z,3.08
2022-11-24T20:29:12.134Z,2.60
2022-11-24T20:31:41.862Z,2.85
2022-11-24T20:34:09.096Z,2.97
2022-11-24T20:36:38.303Z,3.30
2022-11-24T20:39:07.287Z,2.95
2022-11-24T20:41:35.537Z,2.83
2022-11-24T20:44:07.029Z,3.35
2022-11-24T20:46:35.687Z,2.90
2022-11-24T20:49:06.016Z,3.17
2022-11-24T20:51:35.660Z,3.00
2022-11-24T20:54:05.670Z,3.08
2022-11-24T20:56:35.114Z,3.15
2022-11-24T20:59:01.912Z,2.88
2022-11-24T21:01:38.411Z,2.97
2022-11-24T21:04:08.298Z,3.10
2022-11-24T21:06:35.650Z,2.65
2022-11-24T21:09:04.206Z,3.03
2022-11-24T21:11:31.270Z,3.08
2022-11-24T21:13:57.726Z,2.92
2022-11-24T21:16:25.712Z,3.08
2022-11-24T21:18:56.182Z,2.90
2022-11-24T21:21:24.596Z,2.70
2022-11-24T21:23:51.662Z,2.80
2022-11-24T21:26:19.334Z,2.90
2022-11-24T21:28:47.378Z,2.90
2022-11-24T21:31:19.238Z,2.78
2022-11-24T21:33:50.522Z,2.78
2022-11-24T21:36:19.523Z,2.97
2022-11-24T21:38:57.031Z,2.58
2022-11-24T21:41:25.069Z,2.47
2022-11-24T21:43:58.616Z,2.70
2022-11-24T21:46:25.263Z,2.60
2022-11-24T21:48:51.970Z,2.60
2022-11-24T21:51:20.204Z,2.83
2022-11-24T21:53:47.459Z,2.65
2022-11-24T21:56:17.005Z,2.60
2022-11-24T21:58:48.568Z,2.85
2022-11-24T22:01:17.118Z,2.80
2022-11-24T22:03:43.976Z,2.58
2022-11-24T22:06:10.562Z,2.40
2022-11-24T22:08:37.412Z,2.40
2022-11-24T22:11:06.409Z,2.80
2022-11-24T22:13:33.266Z,2.75
2022-11-24T22:16:20.959Z,2.60
2022-11-24T22:18:48.099Z,2.65
2022-11-24T22:21:19.800Z,2.40
2022-11-24T22:23:46.367Z,2.40
2022-11-24T22:26:15.366Z,2.50
2022-11-24T22:28:42.900Z,2.45
2022-11-24T22:31:12.100Z,2.20
2022-11-24T22:33:39.233Z,2.42
2022-11-24T22:36:06.568Z,2.55
2022-11-24T22:38:33.622Z,2.70
2022-11-24T22:41:01.748Z,2.70
2022-11-24T22:43:31.699Z,2.30
2022-11-24T22:46:01.801Z,2.45
2022-11-24T22:48:28.264Z,2.65
2022-11-24T22:51:00.175Z,2.45
2022-11-24T22:53:26.615Z,2.75
2022-11-24T22:55:53.028Z,2.50
2022-11-24T22:58:19.439Z,2.58
2022-11-24T23:00:45.968Z,2.35
2022-11-24T23:03:12.627Z,2.35
2022-11-24T23:05:39.182Z,2.15
2022-11-24T23:08:05.614Z,2.30
2022-11-24T23:10:32.199Z,2.55
2022-11-24T23:12:58.674Z,2.28
2022-11-24T23:15:25.118Z,2.13
2022-11-24T23:17:51.546Z,2.65
2022-11-24T23:20:18.020Z,2.22
2022-11-24T23:22:44.561Z,2.40
2022-11-24T23:25:10.998Z,2.30
2022-11-24T23:27:37.438Z,2.20
2022-11-24T23:30:04.904Z,2.30
2022-11-24T23:32:31.339Z,2.10
2022-11-24T23:34:57.757Z,2.42
2022-11-24T23:37:39.314Z,2.33
2022-11-24T23:40:10.912Z,1.98
2022-11-24T23:42:37.363Z,2.17
2022-11-24T23:45:05.814Z,1.67
2022-11-24T23:47:32.231Z,1.95
2022-11-24T23:49:58.700Z,2.00
2022-11-24T23:52:25.143Z,2.25
2022-11-24T23:54:54.740Z,2.00
2022-11-24T23:57:21.172Z,2.20
2022-11-24T23:59:47.648Z,1.80
